Time;durP1;ratioP1;P1;durP2;ratioP2;P2;SDS_P1;SDS_P2;PMS_P1;PMS_P2;Temp;Humidity;BMP_temperature;BMP_pressure;BME280_temperature;BME280_humidity;BME280_pressure;Samples;Min_cycle;Max_cycle;Signal;HPM_P1;HPM_P2
2021/10/17 00:01:09;;;;;;;;;12.75;12.75;;;;;10.01;62.25;101244.66;5076248;27;59944;-61
2021/10/17 00:03:34;;;;;;;;;11.75;10.50;;;;;10.01;62.20;101250.72;5075938;27;66091;-62
2021/10/17 00:06:00;;;;;;;;;16.50;11.50;;;;;10.00;62.47;101245.59;5076506;27;45650;-62
2021/10/17 00:08:25;;;;;;;;;23.25;17.00;;;;;9.98;62.32;101244.88;5074948;28;45215;-62
2021/10/17 00:10:51;;;;;;;;;22.50;19.00;;;;;9.96;61.70;101250.22;5057983;28;45432;-61
2021/10/17 00:13:16;;;;;;;;;31.25;25.00;;;;;9.94;61.34;101245.09;5075994;28;45446;-62
2021/10/17 00:15:42;;;;;;;;;16.75;16.00;;;;;9.92;61.52;101246.16;5075786;27;45344;-61
2021/10/17 00:18:07;;;;;;;;;20.00;16.00;;;;;9.87;61.60;101240.41;5075519;27;67314;-62
2021/10/17 00:20:33;;;;;;;;;19.25;17.50;;;;;9.87;61.31;101241.25;5075295;27;45453;-62
2021/10/17 00:22:58;;;;;;;;;18.75;15.25;;;;;9.85;62.22;101237.91;5074939;28;45561;-62
2021/10/17 00:25:24;;;;;;;;;18.00;17.00;;;;;9.84;62.25;101240.63;5075385;27;69229;-62
2021/10/17 00:27:49;;;;;;;;;23.50;21.25;;;;;9.82;62.21;101240.75;5074891;28;50076;-62
2021/10/17 00:30:15;;;;;;;;;18.50;17.50;;;;;9.80;62.29;101245.28;5075771;27;61782;-62
2021/10/17 00:32:40;;;;;;;;;19.00;17.00;;;;;9.78;62.39;101241.94;5076197;27;45579;-62
2021/10/17 00:35:07;;;;;;;;;20.00;17.75;;;;;9.75;62.67;101250.03;5075021;28;46315;-62
2021/10/17 00:37:32;;;;;;;;;16.00;14.25;;;;;9.71;62.82;101240.69;5076175;27;45347;-61
2021/10/17 00:39:58;;;;;;;;;17.00;14.75;;;;;9.68;63.20;101239.16;5076362;27;45260;-61
2021/10/17 00:42:23;;;;;;;;;13.50;12.00;;;;;9.62;63.40;101243.06;5076190;27;45462;-62
2021/10/17 00:44:57;;;;;;;;;18.75;17.50;;;;;9.60;63.43;101241.50;5075976;28;45606;-61
2021/10/17 00:47:23;;;;;;;;;20.25;17.50;;;;;9.58;62.99;101246.03;5075095;28;45479;-61
2021/10/17 00:49:48;;;;;;;;;23.25;17.00;;;;;9.53;62.53;101242.91;5074077;28;68423;-62
2021/10/17 00:52:14;;;;;;;;;19.00;17.00;;;;;9.49;62.42;101240.50;5075867;27;50183;-61
2021/10/17 00:54:44;;;;;;;;;19.25;17.00;;;;;9.50;62.41;101241.34;5074653;27;45385;-61
2021/10/17 00:57:13;;;;;;;;;22.00;19.75;;;;;9.51;62.42;101245.63;5074962;28;45881;-62
2021/10/17 00:59:38;;;;;;;;;22.25;19.00;;;;;9.50;62.30;101238.72;5074997;28;45292;-61
2021/10/17 01:02:04;;;;;;;;;17.75;16.00;;;;;9.50;62.84;101228.22;5074021;27;63729;-61
2021/10/17 01:04:31;;;;;;;;;19.50;16.25;;;;;9.49;62.99;101232.63;5075729;27;45528;-61
2021/10/17 01:06:56;;;;;;;;;23.25;21.25;;;;;9.47;62.76;101234.53;5076056;27;45529;-62
2021/10/17 01:09:22;;;;;;;;;24.50;21.50;;;;;9.46;62.72;101237.28;5075136;27;59593;-61
2021/10/17 01:11:47;;;;;;;;;22.00;17.25;;;;;9.44;62.40;101239.97;5073845;28;64592;-62
2021/10/17 01:14:18;;;;;;;;;23.50;18.75;;;;;9.43;62.50;101232.25;5075534;27;45695;-62
2021/10/17 01:16:43;;;;;;;;;20.75;18.25;;;;;9.43;62.35;101237.50;5074553;27;45317;-62
2021/10/17 01:19:08;;;;;;;;;18.25;18.25;;;;;9.43;62.73;101232.25;5075945;27;45375;-62
2021/10/17 01:21:34;;;;;;;;;17.00;15.25;;;;;9.42;63.13;101230.56;5074888;27;66061;-62
2021/10/17 01:23:59;;;;;;;;;17.75;14.50;;;;;9.42;63.07;101230.56;5073435;28;65488;-62
2021/10/17 01:26:25;;;;;;;;;19.50;14.75;;;;;9.42;63.24;101239.25;5074745;27;65917;-62
2021/10/17 01:28:50;;;;;;;;;19.00;17.00;;;;;9.42;63.04;101235.81;5075815;27;45211;-61
2021/10/17 01:31:15;;;;;;;;;16.00;15.75;;;;;9.40;63.11;101238.53;5078059;27;46270;-62
2021/10/17 01:33:41;;;;;;;;;16.00;14.00;;;;;9.38;63.26;101229.13;5078886;27;46340;-62
2021/10/17 01:36:06;;;;;;;;;15.00;13.50;;;;;9.38;63.13;101239.59;5078163;27;66652;-62
2021/10/17 01:38:31;;;;;;;;;16.00;14.75;;;;;9.35;62.99;101233.63;5076808;28;66751;-62
2021/10/17 01:40:57;;;;;;;;;19.75;18.00;;;;;9.33;62.59;101235.53;5078373;27;56685;-62
2021/10/17 01:43:22;;;;;;;;;20.75;17.00;;;;;9.31;62.42;101231.31;5078169;27;59228;-62
2021/10/17 01:45:48;;;;;;;;;19.50;15.50;;;;;9.29;62.28;101226.19;5078529;27;49691;-61
2021/10/17 01:48:13;;;;;;;;;17.25;15.50;;;;;9.28;62.23;101229.78;5078665;27;55024;-62
2021/10/17 01:50:38;;;;;;;;;23.00;17.75;;;;;9.27;62.58;101220.22;5077946;27;65649;-62
2021/10/17 01:53:04;;;;;;;;;20.50;17.50;;;;;9.26;62.25;101225.59;5076989;28;57359;-62
2021/10/17 01:55:29;;;;;;;;;16.50;15.50;;;;;9.25;61.99;101224.75;5078355;27;60018;-62
2021/10/17 01:57:54;;;;;;;;;15.75;14.00;;;;;9.24;62.41;101220.44;5077901;27;63359;-62
2021/10/17 02:00:20;;;;;;;;;19.00;15.50;;;;;9.22;62.52;101222.34;5078229;27;58321;-61
2021/10/17 02:02:45;;;;;;;;;13.25;13.00;;;;;9.19;62.64;101225.19;5078003;27;60370;-62
2021/10/17 02:05:11;;;;;;;;;9.25;9.25;;;;;9.18;62.84;101228.75;5077683;27;69364;-62
2021/10/17 02:07:36;;;;;;;;;15.00;14.00;;;;;9.16;63.15;101218.38;5078845;27;45319;-62
2021/10/17 02:10:01;;;;;;;;;16.50;13.25;;;;;9.16;63.54;101220.16;5078119;27;59101;-62
2021/10/17 02:12:27;;;;;;;;;17.00;13.50;;;;;9.13;62.85;101218.59;5077043;28;46679;-62
2021/10/17 02:14:53;;;;;;;;;21.00;15.00;;;;;9.12;62.42;101216.06;5076562;28;63446;-62
2021/10/17 02:17:19;;;;;;;;;15.25;13.00;;;;;9.10;62.63;101210.97;5077450;28;45280;-61
2021/10/17 02:19:44;;;;;;;;;19.00;17.00;;;;;9.07;62.49;101216.41;5077804;27;61958;-62
2021/10/17 02:22:09;;;;;;;;;18.00;15.50;;;;;9.05;62.36;101213.88;5076840;27;45449;-62
2021/10/17 02:24:35;;;;;;;;;18.25;16.00;;;;;9.04;62.34;101216.63;5077506;27;65286;-61
2021/10/17 02:27:00;;;;;;;;;16.00;14.25;;;;;9.04;62.72;101221.88;5077882;27;54088;-62
2021/10/17 02:29:25;;;;;;;;;21.00;15.75;;;;;9.02;62.36;101214.09;5078114;27;46855;-62
2021/10/17 02:31:51;;;;;;;;;17.50;14.50;;;;;8.99;62.27;101214.34;5075947;28;70983;-62
2021/10/17 02:34:16;;;;;;;;;16.50;15.50;;;;;8.99;62.42;101216.97;5078034;27;45158;-62
2021/10/17 02:36:42;;;;;;;;;16.75;14.50;;;;;8.99;62.36;101214.34;5078252;27;45225;-62
2021/10/17 02:39:07;;;;;;;;;20.25;15.50;;;;;8.97;62.24;101213.63;5076003;28;70126;-62
2021/10/17 02:41:32;;;;;;;;;16.50;14.50;;;;;8.96;62.11;101209.31;5077185;27;67222;-62
2021/10/17 02:43:58;;;;;;;;;21.25;17.50;;;;;8.96;62.23;101205.84;5076063;28;61953;-61
2021/10/17 02:46:23;;;;;;;;;13.25;13.00;;;;;8.96;62.25;101211.94;5076897;28;45635;-61
2021/10/17 02:48:48;;;;;;;;;17.75;16.00;;;;;8.95;62.44;101205.03;5076923;27;69748;-62
2021/10/17 02:51:14;;;;;;;;;16.75;16.00;;;;;8.95;62.27;101205.03;5075561;28;72919;-61
2021/10/17 02:53:39;;;;;;;;;15.00;14.25;;;;;8.94;62.34;101202.50;5076876;27;71614;-62
2021/10/17 02:56:05;;;;;;;;;15.25;14.25;;;;;8.93;62.84;101206.06;5077900;27;45826;-62
2021/10/17 02:58:30;;;;;;;;;18.00;16.00;;;;;8.91;62.75;101204.41;5077915;28;45438;-62
2021/10/17 03:00:55;;;;;;;;;18.00;16.00;;;;;8.91;62.51;101201.78;5076451;27;46059;-61
2021/10/17 03:03:21;;;;;;;;;22.25;16.75;;;;;8.90;62.42;101200.09;5076247;28;49413;-62
2021/10/17 03:05:46;;;;;;;;;19.00;16.00;;;;;8.88;62.69;101196.75;5076999;27;59226;-62
2021/10/17 03:08:12;;;;;;;;;19.75;15.25;;;;;8.87;62.49;101195.06;5077024;27;64107;-61
2021/10/17 03:10:37;;;;;;;;;16.50;15.50;;;;;8.88;62.69;101194.13;5076615;27;68779;-61
2021/10/17 03:13:02;;;;;;;;;18.25;15.25;;;;;8.88;63.08;101198.53;5058671;28;66456;-61
2021/10/17 03:15:28;;;;;;;;;14.75;14.00;;;;;8.86;63.13;101196.03;5075882;28;53137;-61
2021/10/17 03:17:54;;;;;;;;;13.75;13.50;;;;;8.85;63.32;101199.59;5077083;27;57212;-62
2021/10/17 03:20:21;;;;;;;;;14.00;14.00;;;;;8.84;63.57;101194.47;5076993;27;45291;-62
2021/10/17 03:22:46;;;;;;;;;15.50;12.50;;;;;8.82;63.33;101197.19;5076001;28;45990;-62
2021/10/17 03:25:11;;;;;;;;;17.00;16.00;;;;;8.80;63.06;101190.38;5077398;27;45412;-62
2021/10/17 03:27:37;;;;;;;;;14.75;13.75;;;;;8.76;62.91;101193.22;5077507;27;45651;-62
2021/10/17 03:30:03;;;;;;;;;13.00;13.00;;;;;8.72;62.56;101199.63;5076515;27;67229;-62
2021/10/17 03:32:29;;;;;;;;;17.00;13.00;;;;;8.68;62.71;101190.28;5077053;27;46538;-61
2021/10/17 03:34:54;;;;;;;;;12.25;11.75;;;;;8.66;62.49;101191.38;5076547;27;63658;-62
2021/10/17 03:37:19;;;;;;;;;15.00;12.00;;;;;8.66;62.60;101194.81;5077197;27;45302;-61
2021/10/17 03:39:45;;;;;;;;;16.25;14.00;;;;;8.69;62.97;101193.78;5076016;27;70305;-62
2021/10/17 03:42:10;;;;;;;;;20.50;15.00;;;;;8.69;63.23;101189.34;5076193;27;65423;-61
2021/10/17 03:44:35;;;;;;;;;21.50;16.75;;;;;8.70;63.26;101182.34;5075338;28;56841;-62
2021/10/17 03:47:01;;;;;;;;;18.50;15.75;;;;;8.69;63.59;101181.50;5076455;27;59525;-62
2021/10/17 03:49:26;;;;;;;;;13.25;13.25;;;;;8.69;63.66;101183.28;5076940;27;45294;-61
2021/10/17 03:51:51;;;;;;;;;16.75;14.75;;;;;8.68;63.84;101176.38;5076024;27;67895;-62
2021/10/17 03:54:17;;;;;;;;;17.00;14.50;;;;;8.66;63.18;101170.41;5075398;27;69618;-61
2021/10/17 03:56:42;;;;;;;;;17.50;15.75;;;;;8.62;63.45;101175.00;5076125;27;64999;-61
2021/10/17 03:59:08;;;;;;;;;14.00;14.00;;;;;8.61;63.75;101173.31;5075816;27;72860;-62
2021/10/17 04:01:33;;;;;;;;;16.50;13.50;;;;;8.59;63.75;101175.22;5076650;27;45380;-62
2021/10/17 04:03:58;;;;;;;;;12.75;12.75;;;;;8.57;63.27;101177.09;5074796;28;65462;-62
2021/10/17 04:06:24;;;;;;;;;15.25;13.00;;;;;8.54;62.77;101179.94;5075916;27;64299;-62
2021/10/17 04:08:49;;;;;;;;;14.00;11.50;;;;;8.51;63.14;101177.53;5075399;28;45443;-61
2021/10/17 04:11:14;;;;;;;;;18.75;14.75;;;;;8.53;62.95;101180.88;5074768;27;45394;-61
2021/10/17 04:13:40;;;;;;;;;15.50;14.50;;;;;8.51;62.98;101182.75;5075711;27;67185;-62
2021/10/17 04:16:08;;;;;;;;;14.75;13.00;;;;;8.47;62.58;101184.75;5075990;27;60990;-62
2021/10/17 04:18:36;;;;;;;;;10.00;7.00;;;;;8.42;62.32;101174.59;5075806;27;67826;-62
2021/10/17 04:21:01;;;;;;;;;16.00;13.00;;;;;8.42;62.55;101181.59;5076548;27;45891;-62
2021/10/17 04:23:27;;;;;;;;;14.25;13.00;;;;;8.42;62.52;101181.59;5075422;27;68790;-62
2021/10/17 04:25:52;;;;;;;;;20.75;15.00;;;;;8.41;62.63;101174.69;5075415;27;45292;-62
2021/10/17 04:28:17;;;;;;;;;13.75;12.75;;;;;8.39;62.52;101166.09;5075332;27;69379;-61
2021/10/17 04:30:43;;;;;;;;;14.50;12.50;;;;;8.38;62.55;101162.66;5057299;28;68267;-62
2021/10/17 04:33:08;;;;;;;;;19.50;15.25;;;;;8.38;62.81;101167.91;5075594;27;62211;-62
2021/10/17 04:35:34;;;;;;;;;14.25;12.25;;;;;8.40;63.24;101165.16;5076473;27;45486;-62
2021/10/17 04:38:00;;;;;;;;;18.75;15.00;;;;;8.39;63.54;101169.56;5076083;28;46167;-61
2021/10/17 04:40:26;;;;;;;;;14.50;13.00;;;;;8.36;63.77;101169.78;5076187;27;45254;-62
2021/10/17 04:42:52;;;;;;;;;15.00;14.00;;;;;8.36;63.64;101179.41;5075345;27;67058;-62
2021/10/17 04:45:17;;;;;;;;;14.25;14.00;;;;;8.34;63.51;101171.66;5074429;28;65354;-62
2021/10/17 04:47:42;;;;;;;;;18.50;15.00;;;;;8.34;63.75;101163.81;5075787;27;53814;-61
2021/10/17 04:50:08;;;;;;;;;17.50;14.50;;;;;8.35;63.99;101164.63;5075417;27;65705;-61
2021/10/17 04:52:33;;;;;;;;;17.00;14.75;;;;;8.34;64.05;101169.03;5076170;27;45448;-61
2021/10/17 04:54:59;;;;;;;;;16.50;15.00;;;;;8.34;63.84;101171.66;5075880;27;46883;-61
2021/10/17 04:57:24;;;;;;;;;14.25;13.75;;;;;8.33;63.55;101170.00;5075823;27;51806;-62
2021/10/17 04:59:49;;;;;;;;;17.00;13.50;;;;;8.33;63.56;101172.63;5075961;27;45291;-61
2021/10/17 05:02:15;;;;;;;;;18.50;14.25;;;;;8.30;63.54;101176.25;5076207;27;45453;-62
2021/10/17 05:04:40;;;;;;;;;14.75;14.50;;;;;8.30;63.37;101180.69;5076315;27;45547;-62
2021/10/17 05:07:06;;;;;;;;;17.75;14.75;;;;;8.28;63.31;101187.78;5079403;27;45337;-61
2021/10/17 05:09:31;;;;;;;;;14.00;13.00;;;;;8.26;63.17;101187.06;5078370;28;45383;-62
2021/10/17 05:11:56;;;;;;;;;20.50;14.00;;;;;8.22;62.94;101186.41;5079527;27;45370;-61
2021/10/17 05:14:22;;;;;;;;;13.50;11.25;;;;;8.19;62.46;101188.41;5077331;27;65835;-62
2021/10/17 05:16:47;;;;;;;;;20.25;14.50;;;;;8.14;62.63;101186.94;5078282;27;72852;-61
2021/10/17 05:19:13;;;;;;;;;16.25;15.75;;;;;8.14;62.79;101184.34;5077304;27;68484;-62
2021/10/17 05:21:38;;;;;;;;;16.00;14.00;;;;;8.14;62.97;101183.50;5079380;27;45307;-61
2021/10/17 05:24:04;;;;;;;;;23.25;19.75;;;;;8.16;63.41;101190.31;5079441;27;45311;-61
2021/10/17 05:26:29;;;;;;;;;30.00;20.00;;;;;8.16;63.80;101182.44;5077881;28;49039;-62
2021/10/17 05:28:55;;;;;;;;;21.50;20.00;;;;;8.14;63.98;101184.34;5077908;27;45321;-61
2021/10/17 05:31:20;;;;;;;;;27.25;19.75;;;;;8.12;64.28;101182.78;5079266;27;45335;-61
2021/10/17 05:33:45;;;;;;;;;25.25;18.50;;;;;8.12;64.43;101188.00;5078256;27;62560;-61
2021/10/17 05:36:12;;;;;;;;;22.75;20.25;;;;;8.11;64.68;101191.56;5077821;28;46346;-61
2021/10/17 05:38:38;;;;;;;;;23.50;17.00;;;;;8.08;64.47;101197.81;5079183;27;45820;-62
2021/10/17 05:41:04;;;;;;;;;18.25;17.75;;;;;8.05;63.90;101194.59;5079199;27;45360;-61
2021/10/17 05:43:30;;;;;;;;;18.00;15.25;;;;;8.01;63.43;101194.78;5078329;27;61635;-62
2021/10/17 05:45:55;;;;;;;;;19.50;17.75;;;;;7.97;63.49;101193.31;5078683;27;46303;-62
2021/10/17 05:48:21;;;;;;;;;19.50;18.00;;;;;7.95;63.50;101197.81;5078139;27;64710;-61
2021/10/17 05:50:46;;;;;;;;;14.50;13.75;;;;;7.95;63.82;101197.81;5078565;27;47749;-62
2021/10/17 05:53:11;;;;;;;;;23.00;16.75;;;;;7.94;64.05;101201.38;5078038;27;61314;-59
2021/10/17 05:55:39;;;;;;;;;18.25;15.00;;;;;7.95;63.49;101205.69;5077759;27;70476;-62
2021/10/17 05:58:04;;;;;;;;;17.75;12.50;;;;;7.95;63.52;101204.84;5078588;28;45459;-61
2021/10/17 06:00:29;;;;;;;;;19.75;14.75;;;;;7.96;63.79;101207.34;5076653;28;65360;-61
2021/10/17 06:02:55;;;;;;;;;18.25;15.25;;;;;7.97;63.86;101202.94;5078579;27;48731;-61
2021/10/17 06:05:20;;;;;;;;;20.25;15.50;;;;;7.98;64.18;101215.09;5076414;28;69701;-62
2021/10/17 06:07:45;;;;;;;;;19.25;16.00;;;;;7.98;63.67;101215.09;5078042;27;60997;-61
2021/10/17 06:10:13;;;;;;;;;18.50;16.00;;;;;7.94;63.44;101217.06;5077215;27;45398;-62
2021/10/17 06:12:40;;;;;;;;;15.25;14.25;;;;;7.95;63.16;101223.16;5078542;27;45564;-62
2021/10/17 06:15:06;;;;;;;;;19.75;18.00;;;;;7.93;63.28;101222.44;5078151;27;46108;-62
2021/10/17 06:17:32;;;;;;;;;20.50;14.25;;;;;7.93;62.82;101214.56;5076965;28;45371;-62
2021/10/17 06:19:57;;;;;;;;;16.25;13.75;;;;;7.91;62.97;101221.69;5078471;27;45369;-61
2021/10/17 06:22:22;;;;;;;;;19.75;16.50;;;;;7.89;63.46;101221.78;5077108;27;69470;-61
2021/10/17 06:24:48;;;;;;;;;23.50;17.50;;;;;7.88;63.08;101222.72;5077510;27;65335;-62
2021/10/17 06:27:13;;;;;;;;;23.25;20.00;;;;;7.87;63.33;101221.03;5078228;27;45335;-62
2021/10/17 06:29:39;;;;;;;;;21.00;18.75;;;;;7.87;63.59;101232.34;5077362;27;68426;-62
2021/10/17 06:32:04;;;;;;;;;16.00;15.50;;;;;7.90;63.73;101230.47;5076173;28;65944;-61
2021/10/17 06:34:30;;;;;;;;;21.00;21.00;;;;;7.90;63.76;101230.47;5077464;27;46536;-61
2021/10/17 06:36:56;;;;;;;;;21.75;19.75;;;;;7.91;63.73;101232.16;5077214;27;68678;-61
2021/10/17 06:39:22;;;;;;;;;21.00;17.25;;;;;7.89;63.87;101234.03;5077092;27;45466;-61
2021/10/17 06:41:47;;;;;;;;;19.75;16.75;;;;;7.87;64.00;101234.13;5078078;27;45586;-62
2021/10/17 06:44:13;;;;;;;;;20.00;19.00;;;;;7.87;64.25;101236.75;5077784;27;46347;-61
2021/10/17 06:46:38;;;;;;;;;20.75;19.00;;;;;7.87;64.55;101236.75;5076530;27;45406;-61
2021/10/17 06:49:03;;;;;;;;;24.25;19.50;;;;;7.89;64.52;101239.28;5076715;27;64497;-61
2021/10/17 06:51:29;;;;;;;;;22.00;17.75;;;;;7.89;64.52;101245.31;5077872;27;45631;-61
2021/10/17 06:53:54;;;;;;;;;34.75;29.25;;;;;7.90;64.85;101246.19;5077423;27;46499;-62
2021/10/17 06:56:19;;;;;;;;;30.25;27.25;;;;;7.92;65.00;101245.13;5075609;28;58218;-62
2021/10/17 06:58:45;;;;;;;;;24.75;20.50;;;;;7.95;64.78;101250.16;5077668;27;45379;-61
2021/10/17 07:01:10;;;;;;;;;29.25;26.50;;;;;7.95;64.78;101251.94;5076755;27;67012;-61
2021/10/17 07:03:36;;;;;;;;;26.25;24.25;;;;;7.97;64.74;101255.28;5077611;27;45440;-61
2021/10/17 07:06:04;;;;;;;;;33.00;23.00;;;;;7.98;64.79;101262.19;5077586;27;45334;-61
2021/10/17 07:08:29;;;;;;;;;27.00;26.00;;;;;8.03;65.21;101257.50;5076450;27;45479;-61
2021/10/17 07:10:55;;;;;;;;;30.25;25.50;;;;;8.09;65.43;101264.94;5076940;27;61350;-62
2021/10/17 07:13:20;;;;;;;;;26.50;24.00;;;;;8.12;65.37;101272.59;5076483;27;71578;-61
2021/10/17 07:15:45;;;;;;;;;26.00;24.75;;;;;8.16;65.23;101268.84;5077416;27;45331;-61
2021/10/17 07:18:11;;;;;;;;;28.25;23.50;;;;;8.21;65.04;101267.69;5076697;27;64843;-61
2021/10/17 07:20:36;;;;;;;;;28.25;22.50;;;;;8.23;64.78;101268.44;5076777;27;59506;-59
2021/10/17 07:23:02;;;;;;;;;27.00;22.00;;;;;8.24;64.65;101267.47;5076755;27;46095;-61
2021/10/17 07:25:27;;;;;;;;;28.75;22.50;;;;;8.26;64.68;101273.47;5077258;27;45469;-59
2021/10/17 07:27:53;;;;;;;;;29.00;23.25;;;;;8.29;64.74;101265.41;5058276;28;45397;-62
2021/10/17 07:30:20;;;;;;;;;24.25;21.50;;;;;8.30;64.77;101272.31;5077171;28;45552;-61
2021/10/17 07:32:45;;;;;;;;;35.00;29.75;;;;;8.35;64.79;101264.13;5076743;28;45433;-61
2021/10/17 07:35:10;;;;;;;;;38.50;30.50;;;;;8.38;64.86;101272.63;5074707;28;71943;-62
2021/10/17 07:37:36;;;;;;;;;34.75;27.75;;;;;8.40;65.15;101265.53;5076222;27;67049;-61
2021/10/17 07:40:02;;;;;;;;;36.25;28.00;;;;;8.43;65.21;101269.69;5076961;27;45275;-62
2021/10/17 07:42:28;;;;;;;;;31.00;27.75;;;;;8.47;65.39;101273.78;5076355;27;45359;-61
2021/10/17 07:44:53;;;;;;;;;27.25;23.50;;;;;8.54;65.83;101276.84;5074963;28;64270;-61
2021/10/17 07:47:18;;;;;;;;;27.50;22.75;;;;;8.60;65.80;101271.19;5076244;27;68905;-62
2021/10/17 07:49:44;;;;;;;;;38.25;34.00;;;;;8.68;65.86;101262.81;5076482;27;58739;-61
2021/10/17 07:52:10;;;;;;;;;32.00;29.25;;;;;8.76;65.69;101263.09;5076793;27;46157;-61
2021/10/17 07:54:37;;;;;;;;;25.00;21.25;;;;;8.87;65.80;101270.25;5076814;28;45402;-61
2021/10/17 07:57:03;;;;;;;;;30.75;26.25;;;;;8.95;65.67;101275.78;5077111;27;45438;-61
2021/10/17 07:59:29;;;;;;;;;25.00;24.00;;;;;9.04;65.50;101269.88;5076777;27;45288;-61
2021/10/17 08:01:54;;;;;;;;;32.25;27.00;;;;;9.13;65.54;101278.06;5076630;27;45359;-61
2021/10/17 08:04:19;;;;;;;;;31.75;29.00;;;;;9.22;65.25;101272.16;5075965;27;60301;-61
2021/10/17 08:06:45;;;;;;;;;29.25;27.00;;;;;9.34;65.24;101275.69;5076650;27;45334;-61
2021/10/17 08:09:10;;;;;;;;;36.00;29.00;;;;;9.52;65.25;101272.69;5076034;27;65698;-61
2021/10/17 08:11:35;;;;;;;;;30.50;26.25;;;;;9.72;64.53;101268.63;5076373;27;45290;-61
2021/10/17 08:14:01;;;;;;;;;29.50;28.50;;;;;9.94;64.20;101273.13;5076027;27;56826;-61
2021/10/17 08:16:26;;;;;;;;;37.50;32.25;;;;;10.15;63.79;101275.94;5075981;27;60929;-61
2021/10/17 08:18:52;;;;;;;;;36.50;30.75;;;;;10.38;63.56;101270.75;5075402;27;63263;-61
2021/10/17 08:21:17;;;;;;;;;38.75;33.75;;;;;10.63;63.08;101271.50;5075204;27;71188;-61
2021/10/17 08:23:42;;;;;;;;;37.75;32.25;;;;;10.84;62.49;101287.44;5075173;27;64094;-61
2021/10/17 08:26:08;;;;;;;;;30.50;30.25;;;;;11.05;62.08;101287.56;5076455;27;45277;-61
2021/10/17 08:28:33;;;;;;;;;34.50;28.50;;;;;11.27;61.50;101272.69;5075558;27;65049;-61
2021/10/17 08:31:00;;;;;;;;;27.75;24.75;;;;;11.47;61.00;101272.88;5075444;27;68759;-61
2021/10/17 08:33:26;;;;;;;;;34.75;29.50;;;;;11.67;60.72;101274.72;5076275;27;45910;-61
2021/10/17 08:35:52;;;;;;;;;27.75;25.50;;;;;11.87;60.22;101277.53;5075260;28;45264;-62
2021/10/17 08:38:17;;;;;;;;;32.00;28.25;;;;;12.07;59.82;101269.81;5076335;27;45238;-61
2021/10/17 08:40:46;;;;;;;;;31.75;29.00;;;;;12.28;59.95;101273.28;5079415;27;46255;-61
2021/10/17 08:43:11;;;;;;;;;32.50;31.00;;;;;12.52;58.99;101263.41;5078466;28;46040;-61
2021/10/17 08:45:36;;;;;;;;;35.00;31.25;;;;;12.76;58.25;101263.97;5079455;27;54113;-61
2021/10/17 08:48:02;;;;;;;;;42.00;34.25;;;;;12.98;57.80;101259.44;5077578;27;66845;-61
2021/10/17 08:50:28;;;;;;;;;46.25;36.00;;;;;13.23;57.42;101256.47;5079763;27;45309;-61
2021/10/17 08:52:53;;;;;;;;;41.50;34.00;;;;;13.43;57.20;101252.91;5077300;28;72638;-61
2021/10/17 08:55:19;;;;;;;;;32.50;28.00;;;;;13.63;56.44;101255.56;5077494;28;59783;-61
2021/10/17 08:57:44;;;;;;;;;44.00;36.00;;;;;13.77;56.08;101251.69;5079228;27;45549;-62
2021/10/17 09:00:31;;;;;;;;;41.25;36.25;;;;;13.93;55.54;101257.25;5078278;27;45557;-61
2021/10/17 09:02:57;;;;;;;;;38.50;33.00;;;;;14.09;54.98;101251.38;5079142;27;45254;-62
2021/10/17 09:05:39;;;;;;;;;39.00;31.75;;;;;14.24;54.50;101257.03;5078318;27;69042;-62
2021/10/17 09:08:08;;;;;;;;;40.50;32.00;;;;;14.38;54.60;101258.41;5078036;28;45256;-61
2021/10/17 09:10:34;;;;;;;;;35.00;32.25;;;;;14.52;54.38;101251.84;5079283;28;45564;-62
2021/10/17 09:13:12;;;;;;;;;35.00;30.00;;;;;14.67;53.69;101246.91;5078362;27;45458;-62
2021/10/17 09:15:38;;;;;;;;;34.00;30.25;;;;;14.81;53.53;101244.78;5079182;27;45462;-62
2021/10/17 09:18:09;;;;;;;;;31.75;27.50;;;;;14.97;52.81;101244.16;5079208;27;45223;-62
2021/10/17 09:20:37;;;;;;;;;36.75;31.00;;;;;15.04;52.81;101245.22;5078885;27;45713;-62
2021/10/17 09:23:04;;;;;;;;;28.50;24.25;;;;;15.11;52.42;101248.91;5078785;27;46008;-62
2021/10/17 09:25:34;;;;;;;;;28.50;27.25;;;;;15.16;52.07;101256.44;5079195;27;45368;-62
2021/10/17 09:27:59;;;;;;;;;30.00;28.25;;;;;15.21;51.85;101254.19;5077660;27;45444;-61
2021/10/17 09:30:25;;;;;;;;;22.00;20.75;;;;;15.22;51.38;101255.00;5078944;27;46415;-62
2021/10/17 09:32:50;;;;;;;;;24.75;20.75;;;;;15.29;51.60;101245.47;5078991;27;45436;-61
2021/10/17 09:35:15;;;;;;;;;20.75;17.75;;;;;15.39;51.75;101240.09;5078342;27;55870;-62
2021/10/17 09:37:41;;;;;;;;;35.75;30.00;;;;;15.54;51.11;101241.25;5077425;28;45306;-61
2021/10/17 09:40:18;;;;;;;;;21.75;18.50;;;;;15.71;50.99;101241.41;5078651;27;46372;-61
2021/10/17 09:43:08;;;;;;;;;17.75;15.75;;;;;15.91;50.29;101247.38;5077615;28;45296;-62
2021/10/17 09:45:34;;;;;;;;;16.25;13.50;;;;;16.05;50.15;101246.00;5077904;28;45438;-62
2021/10/17 09:48:00;;;;;;;;;19.00;17.00;;;;;16.20;49.66;101248.91;5078779;27;45577;-62
2021/10/17 09:50:25;;;;;;;;;21.25;17.00;;;;;16.35;49.11;101249.19;5075656;28;73329;-62
2021/10/17 09:52:53;;;;;;;;;18.00;16.50;;;;;16.44;48.48;101240.28;5077472;27;45453;-61
2021/10/17 09:55:19;;;;;;;;;17.00;16.50;;;;;16.53;48.45;101238.50;5078583;27;45510;-62
2021/10/17 09:57:44;;;;;;;;;22.25;20.25;;;;;16.61;48.35;101240.34;5077456;27;67319;-62
2021/10/17 10:00:10;;;;;;;;;22.75;19.00;;;;;16.70;47.99;101234.09;5076110;27;73644;-62
2021/10/17 10:02:36;;;;;;;;;19.75;14.00;;;;;16.84;47.56;101235.31;5078291;27;45520;-62
2021/10/17 10:05:01;;;;;;;;;17.00;15.00;;;;;16.95;47.33;101226.25;5077467;27;66040;-62
2021/10/17 10:07:26;;;;;;;;;20.25;16.50;;;;;17.10;46.26;101228.28;5077469;27;59747;-62
2021/10/17 10:09:55;;;;;;;;;15.50;14.25;;;;;17.26;46.34;101216.88;5076140;27;69135;-62
2021/10/17 10:12:20;;;;;;;;;16.75;14.25;;;;;17.42;45.61;101222.22;5077183;28;45335;-62
2021/10/17 10:14:47;;;;;;;;;14.00;13.00;;;;;17.60;44.99;101227.34;5059747;28;58853;-61
2021/10/17 10:17:12;;;;;;;;;10.25;10.25;;;;;17.73;44.57;101221.56;5077257;28;45637;-62
2021/10/17 10:19:38;;;;;;;;;16.50;12.00;;;;;17.90;44.25;101224.19;5060195;28;46206;-62
2021/10/17 10:22:03;;;;;;;;;12.50;10.75;;;;;18.05;43.68;101227.03;5076863;28;45240;-62
2021/10/17 10:24:31;;;;;;;;;13.00;13.00;;;;;18.14;42.71;101226.03;5075900;28;66505;-62
2021/10/17 10:26:57;;;;;;;;;9.75;9.50;;;;;18.20;42.47;101232.50;5060471;28;45394;-60
2021/10/17 10:29:26;;;;;;;;;11.50;10.50;;;;;18.23;42.32;101227.66;5059166;28;64886;-62
2021/10/17 10:31:53;;;;;;;;;13.25;12.25;;;;;18.32;41.58;101228.47;5078017;27;46088;-62
2021/10/17 10:34:21;;;;;;;;;8.75;8.75;;;;;18.36;41.20;101234.28;5077774;27;45273;-62
2021/10/17 10:36:47;;;;;;;;;8.50;8.50;;;;;18.37;41.21;101230.63;5077846;27;45215;-62
2021/10/17 10:39:16;;;;;;;;;11.50;9.25;;;;;18.34;41.32;101226.47;5077732;27;49504;-62
2021/10/17 10:42:03;;;;;;;;;11.75;9.50;;;;;18.41;41.72;101220.47;5077715;27;45893;-62
2021/10/17 10:44:31;;;;;;;;;11.50;10.25;;;;;18.53;41.27;101233.25;5060096;27;45364;-60
2021/10/17 10:46:58;;;;;;;;;8.50;8.25;;;;;18.67;41.00;101229.03;5077424;28;45256;-60
2021/10/17 10:49:40;;;;;;;;;12.00;8.75;;;;;18.86;40.74;101228.78;5076115;27;45489;-60
2021/10/17 10:52:07;;;;;;;;;7.50;7.50;;;;;18.98;40.15;101216.78;5077508;27;45781;-62
2021/10/17 10:54:33;;;;;;;;;8.00;8.00;;;;;18.99;40.05;101221.09;5077552;27;45571;-60
2021/10/17 10:56:58;;;;;;;;;12.00;8.00;;;;;18.97;39.78;101215.13;5076421;28;45399;-60
2021/10/17 10:59:28;;;;;;;;;8.75;7.00;;;;;18.92;40.06;101214.78;5077404;27;45819;-60
2021/10/17 11:02:19;;;;;;;;;11.75;11.00;;;;;18.91;40.35;101211.28;5075731;27;45521;-60
2021/10/17 11:04:44;;;;;;;;;8.50;8.50;;;;;18.90;39.93;101214.94;5076104;27;45545;-61
2021/10/17 11:07:33;;;;;;;;;9.75;7.25;;;;;18.93;39.92;101211.13;5077541;27;45443;-61
2021/10/17 11:10:22;;;;;;;;;8.00;7.00;;;;;18.92;40.00;101206.78;5077106;27;45551;-61
2021/10/17 11:12:51;;;;;;;;;12.75;10.50;;;;;18.87;40.23;101209.97;5077116;27;45603;-61